PWSweather.com
Personal Weather Stations
Station Observations
SHAHALMS1
Eftra, Falkenberg, HA

EftraFalkenberg, HA

Lat: 56.85, Lon: 12.65

Elevation: 140

Station Type:

http://hem.passagen.se/risarp101

High Low Average
Temperature 59.7°F15.4°C 50.4°F10.2°C 56.1°F13.4°C
Dew Point 57.7°F14.3°C 46.3°F7.9°C 52.0°F11.1°C
Winds 13.4 mph 21.6 kmh Calm Calm 6.0 mph SE9.7 kmh SE
Wind Gusts 18.3 mph29.5 kmh -- 11.0 mph17.7 kmh
Humidity 93% 80% 86%
Pressure 29.83 in1010.2 mb 29.53 in1000.0 mb -
Precipitation 1.00 in25.4 mm - -
Hour Temp Dew Point Humidity Winds Wind Gusts Pressure Precip Precip Rate Daily Precip Total
12:00 AM 53.2°F11.8°C 47.9°F8.8°C 82% 8.3 mph SE13.4 kmh SE 13.6 mph21.9 kmh 29.80 in1009.1 mb 0.00 in0.0 mm 0.00 in0.0 mm 0.00 in0.0 mm
12:15 AM 53.1°F11.7°C 48.0°F8.9°C 83% 9.0 mph SE14.5 kmh SE 15.7 mph25.3 kmh 29.80 in1009.1 mb 0.00 in0.0 mm 0.00 in0.0 mm 0.00 in0.0 mm
12:30 AM 53.1°F11.7°C 48.0°F8.9°C 83% 8.1 mph SE13.0 kmh SE 14.0 mph22.5 kmh 29.80 in1009.1 mb 0.00 in0.0 mm 0.00 in0.0 mm 0.00 in0.0 mm
12:45 AM 52.9°F11.6°C 48.2°F9.0°C 84% 7.6 mph ESE12.2 kmh ESE 12.2 mph19.6 kmh 29.83 in1010.2 mb 0.00 in0.0 mm 0.00 in0.0 mm 0.00 in0.0 mm
01:00 AM 53.1°F11.7°C 48.4°F9.1°C 84% 7.6 mph ESE12.2 kmh ESE 13.6 mph21.9 kmh 29.80 in1009.1 mb 0.00 in0.0 mm 0.00 in0.0 mm 0.00 in0.0 mm
01:15 AM 53.1°F11.7°C 48.4°F9.1°C 84% 8.0 mph ESE12.9 kmh ESE 16.1 mph25.9 kmh 29.80 in1009.1 mb 0.00 in0.0 mm 0.00 in0.0 mm 0.00 in0.0 mm
01:30 AM 53.1°F11.7°C 48.7°F9.3°C 85% 4.2 mph ESE6.8 kmh ESE 9.7 mph15.6 kmh 29.80 in1009.1 mb 0.00 in0.0 mm 0.00 in0.0 mm 0.00 in0.0 mm
01:45 AM 53.2°F11.8°C 48.8°F9.3°C 85% 1.6 mph SSE2.6 kmh SSE 7.5 mph12.1 kmh 29.80 in1009.1 mb 0.00 in0.0 mm 0.00 in0.0 mm 0.00 in0.0 mm
02:00 AM 53.4°F11.9°C 49.3°F9.6°C 86% 5.2 mph ESE8.4 kmh ESE 8.6 mph13.8 kmh 29.80 in1009.1 mb 0.00 in0.0 mm 0.00 in0.0 mm 0.00 in0.0 mm
02:15 AM 53.4°F11.9°C 49.3°F9.6°C 86% 5.8 mph ESE9.3 kmh ESE 10.4 mph16.7 kmh 29.77 in1008.1 mb 0.00 in0.0 mm 0.00 in0.0 mm 0.00 in0.0 mm
02:30 AM 53.4°F11.9°C 49.3°F9.6°C 86% 4.9 mph E7.9 kmh E 10.0 mph16.1 kmh 29.77 in1008.1 mb 0.00 in0.0 mm 0.00 in0.0 mm 0.00 in0.0 mm
02:45 AM 53.1°F11.7°C 49.0°F9.4°C 86% 3.4 mph E5.5 kmh E 6.1 mph9.8 kmh 29.74 in1007.1 mb 0.00 in0.0 mm 0.00 in0.0 mm 0.00 in0.0 mm
03:00 AM 52.5°F11.4°C 48.1°F8.9°C 85% 4.2 mph E6.8 kmh E 8.6 mph13.8 kmh 29.74 in1007.1 mb 0.00 in0.0 mm 0.00 in0.0 mm 0.00 in0.0 mm
03:15 AM 52.2°F11.2°C 47.8°F8.8°C 85% 5.4 mph E8.7 kmh E 9.3 mph15.0 kmh 29.74 in1007.1 mb 0.00 in0.0 mm 0.00 in0.0 mm 0.00 in0.0 mm
03:30 AM 51.8°F11.0°C 47.4°F8.6°C 85% 4.8 mph E7.7 kmh E 8.9 mph14.3 kmh 29.74 in1007.1 mb 0.00 in0.0 mm 0.00 in0.0 mm 0.00 in0.0 mm
03:45 AM 51.4°F10.8°C 47.4°F8.6°C 86% 7.1 mph ESE11.4 kmh ESE 12.9 mph20.8 kmh 29.74 in1007.1 mb 0.00 in0.0 mm 0.00 in0.0 mm 0.00 in0.0 mm
04:00 AM 51.1°F10.6°C 47.0°F8.3°C 86% 7.4 mph E11.9 kmh E 12.9 mph20.8 kmh 29.71 in1006.1 mb 0.00 in0.0 mm 0.00 in0.0 mm 0.00 in0.0 mm
04:15 AM 51.1°F10.6°C 47.0°F8.3°C 86% 7.7 mph E12.4 kmh E 15.0 mph24.1 kmh 29.71 in1006.1 mb 0.00 in0.0 mm 0.00 in0.0 mm 0.00 in0.0 mm
04:30 AM 50.9°F10.5°C 46.9°F8.3°C 86% 8.8 mph E14.2 kmh E 15.4 mph24.8 kmh 29.74 in1007.1 mb 0.00 in0.0 mm 0.00 in0.0 mm 0.00 in0.0 mm
04:46 AM 50.7°F10.4°C 46.7°F8.2°C 86% 6.3 mph E10.1 kmh E 13.6 mph21.9 kmh 29.74 in1007.1 mb 0.00 in0.0 mm 0.00 in0.0 mm 0.00 in0.0 mm
05:00 AM 50.4°F10.2°C 46.3°F7.9°C 86% 2.1 mph ESE3.4 kmh ESE 7.9 mph12.7 kmh 29.74 in1007.1 mb 0.00 in0.0 mm 0.00 in0.0 mm 0.00 in0.0 mm
05:15 AM 50.4°F10.2°C 46.6°F8.1°C 87% 2.2 mph E3.5 kmh E 8.6 mph13.8 kmh 29.74 in1007.1 mb 0.00 in0.0 mm 0.00 in0.0 mm 0.00 in0.0 mm
05:30 AM 51.1°F10.6°C 47.3°F8.5°C 87% 3.4 mph E5.5 kmh E 8.9 mph14.3 kmh 29.74 in1007.1 mb 0.00 in0.0 mm 0.00 in0.0 mm 0.00 in0.0 mm
05:45 AM 51.4°F10.8°C 48.0°F8.9°C 88% 3.4 mph E5.5 kmh E 9.3 mph15.0 kmh 29.71 in1006.1 mb 0.00 in0.0 mm 0.00 in0.0 mm 0.00 in0.0 mm
06:00 AM 52.2°F11.2°C 48.7°F9.3°C 88% 5.1 mph E8.2 kmh E 16.5 mph26.6 kmh 29.71 in1006.1 mb 0.00 in0.0 mm 0.00 in0.0 mm 0.00 in0.0 mm
06:15 AM 53.1°F11.7°C 49.9°F9.9°C 89% 4.2 mph E6.8 kmh E 14.0 mph22.5 kmh 29.71 in1006.1 mb 0.00 in0.0 mm 0.00 in0.0 mm 0.00 in0.0 mm
06:30 AM 53.6°F12.0°C 50.1°F10.1°C 88% 3.4 mph E5.5 kmh E 10.4 mph16.7 kmh 29.71 in1006.1 mb 0.00 in0.0 mm 0.00 in0.0 mm 0.00 in0.0 mm
06:45 AM 53.8°F12.1°C 50.0°F10.0°C 87% 2.9 mph E4.7 kmh E 10.7 mph17.2 kmh 29.71 in1006.1 mb 0.00 in0.0 mm 0.00 in0.0 mm 0.00 in0.0 mm
07:00 AM 54.0°F12.2°C 50.2°F10.1°C 87% 3.3 mph E5.3 kmh E 10.0 mph16.1 kmh 29.71 in1006.1 mb 0.00 in0.0 mm 0.00 in0.0 mm 0.00 in0.0 mm
07:15 AM 54.1°F12.3°C 50.0°F10.0°C 86% 4.1 mph E6.6 kmh E 10.7 mph17.2 kmh 29.68 in1005.1 mb 0.00 in0.0 mm 0.00 in0.0 mm 0.00 in0.0 mm
07:30 AM 54.5°F12.5°C 50.4°F10.2°C 86% 5.1 mph ESE8.2 kmh ESE 13.6 mph21.9 kmh 29.68 in1005.1 mb 0.00 in0.0 mm 0.00 in0.0 mm 0.00 in0.0 mm
09:02 AM 55.0°F12.8°C 50.9°F10.5°C 86% 7.9 mph E12.7 kmh E 9.7 mph15.6 kmh 29.65 in1004.1 mb 0.00 in0.0 mm 0.00 in0.0 mm 0.00 in0.0 mm
09:12 AM 55.4°F13.0°C 51.3°F10.7°C 86% 3.2 mph E5.1 kmh E 3.9 mph6.3 kmh 29.65 in1004.1 mb 0.00 in0.0 mm 0.00 in0.0 mm 0.00 in0.0 mm
09:22 AM 55.6°F13.1°C 51.1°F10.6°C 85% 6.5 mph SE10.5 kmh SE 12.2 mph19.6 kmh 29.68 in1005.1 mb 0.00 in0.0 mm 0.00 in0.0 mm 0.00 in0.0 mm
09:32 AM 55.9°F13.3°C 51.2°F10.7°C 84% 1.2 mph E1.9 kmh E 1.4 mph2.3 kmh 29.68 in1005.1 mb 0.00 in0.0 mm 0.00 in0.0 mm 0.00 in0.0 mm
09:42 AM 56.3°F13.5°C 50.9°F10.5°C 82% 5.2 mph SE8.4 kmh SE 6.4 mph10.3 kmh 29.68 in1005.1 mb 0.00 in0.0 mm 0.00 in0.0 mm 0.00 in0.0 mm
09:52 AM 56.5°F13.6°C 50.4°F10.2°C 80% 7.6 mph SSE12.2 kmh SSE 9.3 mph15.0 kmh 29.68 in1005.1 mb 0.00 in0.0 mm 0.00 in0.0 mm 0.00 in0.0 mm
10:02 AM 57.0°F13.9°C 50.9°F10.5°C 80% 3.2 mph SE5.1 kmh SE 3.9 mph6.3 kmh 29.65 in1004.1 mb 0.00 in0.0 mm 0.00 in0.0 mm 0.00 in0.0 mm
10:12 AM 57.7°F14.3°C 51.6°F10.9°C 80% 9.6 mph SSE15.4 kmh SSE 11.8 mph19.0 kmh 29.65 in1004.1 mb 0.00 in0.0 mm 0.00 in0.0 mm 0.00 in0.0 mm
10:22 AM 58.1°F14.5°C 52.0°F11.1°C 80% Calm Calm -- 29.65 in1004.1 mb 0.00 in0.0 mm 0.00 in0.0 mm 0.00 in0.0 mm
10:32 AM 58.5°F14.7°C 52.6°F11.4°C 81% 3.2 mph E5.1 kmh E 3.9 mph6.3 kmh 29.65 in1004.1 mb 0.00 in0.0 mm 0.00 in0.0 mm 0.00 in0.0 mm
10:42 AM 58.6°F14.8°C 53.2°F11.8°C 82% 8.4 mph SE13.5 kmh SE 10.4 mph16.7 kmh 29.65 in1004.1 mb 0.00 in0.0 mm 0.00 in0.0 mm 0.00 in0.0 mm
10:52 AM 58.8°F14.9°C 53.3°F11.8°C 82% 7.7 mph ESE12.4 kmh ESE 10.4 mph16.7 kmh 29.68 in1005.1 mb 0.00 in0.0 mm 0.00 in0.0 mm 0.00 in0.0 mm
11:02 AM 58.3°F14.6°C 52.5°F11.4°C 81% 7.6 mph E12.2 kmh E 9.3 mph15.0 kmh 29.68 in1005.1 mb 0.00 in0.0 mm 0.00 in0.0 mm 0.00 in0.0 mm
11:12 AM 58.1°F14.5°C 52.3°F11.3°C 81% 11.1 mph E17.9 kmh E 13.6 mph21.9 kmh 29.68 in1005.1 mb 0.00 in0.0 mm 0.00 in0.0 mm 0.00 in0.0 mm
11:22 AM 57.7°F14.3°C 51.6°F10.9°C 80% 7.6 mph SE12.2 kmh SE 9.3 mph15.0 kmh 29.68 in1005.1 mb 0.00 in0.0 mm 0.00 in0.0 mm 0.00 in0.0 mm
11:32 AM 57.4°F14.1°C 51.3°F10.7°C 80% 13.4 mph ESE21.6 kmh ESE 16.5 mph26.6 kmh 29.68 in1005.1 mb 0.00 in0.0 mm 0.00 in0.0 mm 0.00 in0.0 mm
11:42 AM 56.8°F13.8°C 50.7°F10.4°C 80% 9.6 mph E15.4 kmh E 11.8 mph19.0 kmh 29.68 in1005.1 mb 0.00 in0.0 mm 0.00 in0.0 mm 0.00 in0.0 mm
11:52 AM 56.5°F13.6°C 50.4°F10.2°C 80% 8.1 mph E13.0 kmh E 10.0 mph16.1 kmh 29.68 in1005.1 mb 0.05 in1.3 mm 0.30 in7.6 mm 0.05 in1.3 mm
12:02 PM 56.1°F13.4°C 50.4°F10.2°C 81% 4.7 mph ESE7.6 kmh ESE 5.7 mph9.2 kmh 29.65 in1004.1 mb 0.05 in1.3 mm 0.00 in0.0 mm 0.05 in1.3 mm
12:12 PM 55.9°F13.3°C 50.5°F10.3°C 82% 7.0 mph E11.3 kmh E 8.6 mph13.8 kmh 29.65 in1004.1 mb 0.05 in1.3 mm 0.00 in0.0 mm 0.05 in1.3 mm
12:22 PM 55.8°F13.2°C 50.3°F10.2°C 82% 8.7 mph E14.0 kmh E 12.9 mph20.8 kmh 29.65 in1004.1 mb 0.05 in1.3 mm 0.00 in0.0 mm 0.05 in1.3 mm
12:32 PM 55.6°F13.1°C 50.5°F10.3°C 83% 7.9 mph SE12.7 kmh SE 9.7 mph15.6 kmh 29.62 in1003.0 mb 0.05 in1.3 mm 0.00 in0.0 mm 0.05 in1.3 mm
12:42 PM 55.9°F13.3°C 51.2°F10.7°C 84% 10.2 mph E16.4 kmh E 12.5 mph20.1 kmh 29.62 in1003.0 mb 0.05 in1.3 mm 0.00 in0.0 mm 0.05 in1.3 mm
12:52 PM 56.1°F13.4°C 51.7°F10.9°C 85% 9.9 mph NNE15.9 kmh NNE 12.2 mph19.6 kmh 29.62 in1003.0 mb 0.00 in0.0 mm 0.00 in0.0 mm 0.05 in1.3 mm
01:02 PM 56.1°F13.4°C 51.4°F10.8°C 84% 9.9 mph E15.9 kmh E 12.2 mph19.6 kmh 29.62 in1003.0 mb 0.00 in0.0 mm 0.00 in0.0 mm 0.05 in1.3 mm
01:12 PM 55.9°F13.3°C 51.2°F10.7°C 84% 7.9 mph E12.7 kmh E 9.7 mph15.6 kmh 29.62 in1003.0 mb 0.00 in0.0 mm 0.00 in0.0 mm 0.05 in1.3 mm
01:22 PM 55.8°F13.2°C 50.7°F10.4°C 83% 9.9 mph E15.9 kmh E 12.2 mph19.6 kmh 29.62 in1003.0 mb 0.00 in0.0 mm 0.00 in0.0 mm 0.05 in1.3 mm
01:32 PM 56.1°F13.4°C 51.0°F10.6°C 83% 8.4 mph E13.5 kmh E 10.4 mph16.7 kmh 29.62 in1003.0 mb 0.00 in0.0 mm 0.00 in0.0 mm 0.05 in1.3 mm
01:42 PM 56.5°F13.6°C 51.4°F10.8°C 83% 7.6 mph SE12.2 kmh SE 9.3 mph15.0 kmh 29.62 in1003.0 mb 0.00 in0.0 mm 0.00 in0.0 mm 0.05 in1.3 mm
01:52 PM 56.8°F13.8°C 51.7°F10.9°C 83% 9.5 mph SSE15.3 kmh SSE 14.0 mph22.5 kmh 29.62 in1003.0 mb 0.00 in0.0 mm 0.00 in0.0 mm 0.05 in1.3 mm
02:02 PM 57.4°F14.1°C 52.3°F11.3°C 83% 7.6 mph E12.2 kmh E 9.3 mph15.0 kmh 29.62 in1003.0 mb 0.00 in0.0 mm 0.00 in0.0 mm 0.05 in1.3 mm
02:12 PM 57.6°F14.2°C 52.4°F11.3°C 83% 5.5 mph E8.9 kmh E 6.8 mph10.9 kmh 29.62 in1003.0 mb 0.00 in0.0 mm 0.00 in0.0 mm 0.05 in1.3 mm
02:22 PM 57.4°F14.1°C 51.6°F10.9°C 81% 10.2 mph SSE16.4 kmh SSE 12.5 mph20.1 kmh 29.59 in1002.0 mb 0.00 in0.0 mm 0.00 in0.0 mm 0.05 in1.3 mm
02:32 PM 57.2°F14.0°C 51.4°F10.8°C 81% 11.1 mph SE17.9 kmh SE 13.6 mph21.9 kmh 29.59 in1002.0 mb 0.00 in0.0 mm 0.00 in0.0 mm 0.05 in1.3 mm
02:42 PM 57.2°F14.0°C 51.8°F11.0°C 82% 13.4 mph SE21.6 kmh SE 16.5 mph26.6 kmh 29.59 in1002.0 mb 0.00 in0.0 mm 0.00 in0.0 mm 0.05 in1.3 mm
02:52 PM 57.2°F14.0°C 51.8°F11.0°C 82% 8.1 mph E13.0 kmh E 10.0 mph16.1 kmh 29.62 in1003.0 mb 0.00 in0.0 mm 0.00 in0.0 mm 0.05 in1.3 mm
03:02 PM 57.2°F14.0°C 52.1°F11.2°C 83% 1.7 mph NE2.7 kmh NE 2.1 mph3.4 kmh 29.62 in1003.0 mb 0.00 in0.0 mm 0.00 in0.0 mm 0.05 in1.3 mm
03:12 PM 57.4°F14.1°C 52.3°F11.3°C 83% 7.0 mph S11.3 kmh S 8.6 mph13.8 kmh 29.62 in1003.0 mb 0.00 in0.0 mm 0.00 in0.0 mm 0.05 in1.3 mm
03:22 PM 57.6°F14.2°C 52.4°F11.3°C 83% 5.5 mph S8.9 kmh S 8.6 mph13.8 kmh 29.59 in1002.0 mb 0.00 in0.0 mm 0.00 in0.0 mm 0.05 in1.3 mm
03:30 PM 56.3°F13.5°C 52.2°F11.2°C 86% 6.1 mph SE9.8 kmh SE 12.5 mph20.1 kmh 29.59 in1002.0 mb 0.05 in1.3 mm 0.38 in9.7 mm 0.09 in2.3 mm
03:32 PM 57.4°F14.1°C 52.3°F11.3°C 83% 9.3 mph SE15.0 kmh SE 11.5 mph18.5 kmh 29.59 in1002.0 mb 0.00 in0.0 mm 0.00 in0.0 mm 0.05 in1.3 mm
03:42 PM 57.4°F14.1°C 52.3°F11.3°C 83% 3.5 mph S5.6 kmh S 4.3 mph6.9 kmh 29.59 in1002.0 mb 0.00 in0.0 mm 0.00 in0.0 mm 0.05 in1.3 mm
03:44 PM 57.6°F14.2°C 52.8°F11.6°C 84% 7.3 mph E11.7 kmh E 8.9 mph14.3 kmh 29.59 in1002.0 mb 0.05 in1.3 mm 1.50 in38.1 mm 0.09 in2.3 mm
03:45 PM 56.1°F13.4°C 52.3°F11.3°C 87% 6.8 mph ESE10.9 kmh ESE 13.6 mph21.9 kmh 29.59 in1002.0 mb 0.05 in1.3 mm 0.00 in0.0 mm 0.09 in2.3 mm
03:52 PM 57.7°F14.3°C 52.9°F11.6°C 84% 4.9 mph E7.9 kmh E 6.1 mph9.8 kmh 29.59 in1002.0 mb 0.05 in1.3 mm 0.00 in0.0 mm 0.09 in2.3 mm
04:00 PM 56.3°F13.5°C 52.8°F11.6°C 88% 4.5 mph SE7.2 kmh SE 12.5 mph20.1 kmh 29.56 in1001.0 mb 0.09 in2.3 mm 0.05 in1.3 mm 0.14 in3.6 mm
04:15 PM 56.3°F13.5°C 52.8°F11.6°C 88% 3.2 mph ESE5.1 kmh ESE 12.5 mph20.1 kmh 29.56 in1001.0 mb 0.09 in2.3 mm 0.00 in0.0 mm 0.14 in3.6 mm
04:30 PM 56.3°F13.5°C 52.8°F11.6°C 88% 3.8 mph ESE6.1 kmh ESE 12.5 mph20.1 kmh 29.59 in1002.0 mb 0.09 in2.3 mm 0.00 in0.0 mm 0.14 in3.6 mm
04:45 PM 56.3°F13.5°C 52.8°F11.6°C 88% 4.4 mph E7.1 kmh E 11.5 mph18.5 kmh 29.56 in1001.0 mb 0.05 in1.3 mm 0.00 in0.0 mm 0.14 in3.6 mm
05:00 PM 56.7°F13.7°C 53.5°F11.9°C 89% 5.3 mph ESE8.5 kmh ESE 12.2 mph19.6 kmh 29.56 in1001.0 mb 0.05 in1.3 mm 0.00 in0.0 mm 0.14 in3.6 mm
05:15 PM 56.5°F13.6°C 53.3°F11.8°C 89% 6.1 mph ESE9.8 kmh ESE 16.8 mph27.0 kmh 29.53 in1000.0 mb 0.05 in1.3 mm 0.00 in0.0 mm 0.14 in3.6 mm
05:30 PM 56.5°F13.6°C 53.6°F12.0°C 90% 5.3 mph ESE8.5 kmh ESE 11.1 mph17.9 kmh 29.56 in1001.0 mb 0.14 in3.6 mm 0.36 in9.1 mm 0.23 in5.8 mm
05:45 PM 56.5°F13.6°C 53.6°F12.0°C 90% 4.2 mph E6.8 kmh E 10.7 mph17.2 kmh 29.53 in1000.0 mb 0.19 in4.8 mm 0.20 in5.1 mm 0.32 in8.1 mm
06:00 PM 56.8°F13.8°C 53.9°F12.2°C 90% 3.0 mph SE4.8 kmh SE 8.9 mph14.3 kmh 29.56 in1001.0 mb 0.29 in7.4 mm 0.13 in3.3 mm 0.43 in10.9 mm
06:15 PM 58.3°F14.6°C 56.3°F13.5°C 93% 6.7 mph SSW10.8 kmh SSW 15.7 mph25.3 kmh 29.53 in1000.0 mb 0.62 in15.7 mm 1.32 in33.5 mm 0.76 in19.3 mm
06:30 PM 59.2°F15.1°C 57.2°F14.0°C 93% 6.0 mph WSW9.7 kmh WSW 12.5 mph20.1 kmh 29.53 in1000.0 mb 0.53 in13.5 mm 0.00 in0.0 mm 0.76 in19.3 mm
06:45 PM 59.5°F15.3°C 57.5°F14.2°C 93% 5.2 mph W8.4 kmh W 12.2 mph19.6 kmh 29.56 in1001.0 mb 0.44 in11.2 mm 0.00 in0.0 mm 0.76 in19.3 mm
07:00 PM 59.7°F15.4°C 57.7°F14.3°C 93% 5.8 mph W9.3 kmh W 13.6 mph21.9 kmh 29.56 in1001.0 mb 0.34 in8.6 mm 0.00 in0.0 mm 0.76 in19.3 mm
07:15 PM 59.7°F15.4°C 57.7°F14.3°C 93% 3.2 mph W5.1 kmh W 6.8 mph10.9 kmh 29.56 in1001.0 mb 0.00 in0.0 mm 0.00 in0.0 mm 0.76 in19.3 mm
07:30 PM 59.7°F15.4°C 57.7°F14.3°C 93% 5.3 mph W8.5 kmh W 17.2 mph27.7 kmh 29.59 in1002.0 mb 0.14 in3.6 mm 0.56 in14.2 mm 0.90 in22.9 mm
07:45 PM 59.4°F15.2°C 57.3°F14.1°C 93% 4.6 mph W7.4 kmh W 18.3 mph29.5 kmh 29.59 in1002.0 mb 0.14 in3.6 mm 0.00 in0.0 mm 0.90 in22.9 mm
08:00 PM 59.2°F15.1°C 57.2°F14.0°C 93% 3.9 mph WNW6.3 kmh WNW 9.7 mph15.6 kmh 29.62 in1003.0 mb 0.14 in3.6 mm 0.00 in0.0 mm 0.90 in22.9 mm
08:15 PM 59.2°F15.1°C 57.2°F14.0°C 93% 3.4 mph W5.5 kmh W 13.6 mph21.9 kmh 29.62 in1003.0 mb 0.14 in3.6 mm 0.00 in0.0 mm 0.90 in22.9 mm
08:30 PM 59.4°F15.2°C 57.3°F14.1°C 93% 4.2 mph W6.8 kmh W 10.4 mph16.7 kmh 29.62 in1003.0 mb 0.05 in1.3 mm 0.00 in0.0 mm 0.94 in23.9 mm
08:45 PM 59.0°F15.0°C 57.0°F13.9°C 93% 7.0 mph WNW11.3 kmh WNW 14.7 mph23.7 kmh 29.59 in1002.0 mb 0.05 in1.3 mm 0.00 in0.0 mm 0.94 in23.9 mm
09:00 PM 58.8°F14.9°C 56.8°F13.8°C 93% 2.9 mph W4.7 kmh W 8.6 mph13.8 kmh 29.62 in1003.0 mb 0.10 in2.5 mm 0.07 in1.8 mm 1.00 in25.4 mm
09:15 PM 58.8°F14.9°C 56.8°F13.8°C 93% 3.8 mph W6.1 kmh W 10.4 mph16.7 kmh 29.62 in1003.0 mb 0.10 in2.5 mm 0.00 in0.0 mm 1.00 in25.4 mm
09:30 PM 58.8°F14.9°C 56.8°F13.8°C 93% 1.3 mph W2.1 kmh W 10.4 mph16.7 kmh 29.65 in1004.1 mb 0.06 in1.5 mm 0.00 in0.0 mm 1.00 in25.4 mm
09:45 PM 59.0°F15.0°C 57.0°F13.9°C 93% 4.8 mph W7.7 kmh W 12.2 mph19.6 kmh 29.65 in1004.1 mb 0.06 in1.5 mm 0.00 in0.0 mm 1.00 in25.4 mm
10:00 PM 59.0°F15.0°C 57.0°F13.9°C 93% 4.2 mph W6.8 kmh W 16.1 mph25.9 kmh 29.68 in1005.1 mb 0.00 in0.0 mm 0.00 in0.0 mm 1.00 in25.4 mm
10:15 PM 59.0°F15.0°C 57.0°F13.9°C 93% 4.2 mph WNW6.8 kmh WNW 10.4 mph16.7 kmh 29.68 in1005.1 mb 0.00 in0.0 mm 0.00 in0.0 mm 1.00 in25.4 mm
10:30 PM 58.8°F14.9°C 56.8°F13.8°C 93% 3.8 mph WNW6.1 kmh WNW 12.2 mph19.6 kmh 29.68 in1005.1 mb 0.00 in0.0 mm 0.00 in0.0 mm 1.00 in25.4 mm
10:45 PM 58.5°F14.7°C 56.4°F13.6°C 93% 3.0 mph W4.8 kmh W 10.4 mph16.7 kmh 29.68 in1005.1 mb 0.00 in0.0 mm 0.00 in0.0 mm 1.00 in25.4 mm
11:00 PM 58.6°F14.8°C 56.6°F13.7°C 93% 2.6 mph WSW4.2 kmh WSW 11.1 mph17.9 kmh 29.71 in1006.1 mb 0.00 in0.0 mm 0.00 in0.0 mm 0.95 in24.1 mm
11:15 PM 58.6°F14.8°C 56.6°F13.7°C 93% 3.5 mph W5.6 kmh W 6.8 mph10.9 kmh 29.65 in1004.1 mb 0.00 in0.0 mm 0.00 in0.0 mm 0.95 in24.1 mm
11:30 PM 58.8°F14.9°C 56.8°F13.8°C 93% 5.4 mph WNW8.7 kmh WNW 16.5 mph26.6 kmh 29.68 in1005.1 mb 0.00 in0.0 mm 0.00 in0.0 mm 0.95 in24.1 mm
11:45 PM 58.6°F14.8°C 56.6°F13.7°C 93% 6.8 mph WNW10.9 kmh WNW 16.1 mph25.9 kmh 29.68 in1005.1 mb 0.00 in0.0 mm 0.00 in0.0 mm 0.95 in24.1 mm